Borne, Netherlands
Current Conditions -  °F | °C
As of 12:55 AM on Monday 24 Nov 2014 (Local Time) from EHDL Reporting Station
Drizzle Drizzle  
Wind Chill: 43°   Ceiling: 600
Heat Index: 48°   Visibility: 2mi
Dew Point: 48°   Wind: 13mph
Humidity: 100%   Direction: 320°NW
Pressure: 30"   Gusts: NA
Location:  52.3°N, 6.75°E
Report Text: EHDL 232355Z AUTO 32011KT 3200 +DZ SCT005 BKN006 OVC008 09/09 Q1016 YLO
Loading
Personal Weather Stations






























Interactive Weather Map New forecast layout! Learn more

10-Day Weather Forecast

Advertisements
Track Severe Weather on mobile